Terminal Aerodrome Forecast
Issued by NWS

Home | Current Version | Previous Version | Text Only | Print | Product List | Glossary On
Versions: 1 2 3 4 5 6 7 8 9 10 11 12 13 14 15
609
FTUS43 KSGF 080520
TAFJLN
TAF
KJLN 080520Z 0806/0906 31015G22KT P6SM OVC090
     FM080900 30013G20KT P6SM BKN050 OVC100
     FM081300 31022G32KT P6SM OVC050
     FM090100 31012KT P6SM OVC100=

USA.gov is the U.S. government's official web portal to all federal, state and local government web resources and services.